GCC Virtual Airport Information Service

Auckland International Airport

ICAO: NZAA Country: NZ
Latitude: -37.0081 Longitude: 174.792
Latest Arrival : QTR920 (OTHH-NZAA) Latest Departure : QTR921 (NZAA-OTHH)


WX CaptureLIVE
Data provided by noaa.gov | Fetched at 14:17:03

METAR : NZAA 051400Z AUTO 01003KT 9999 OVC045/// 18/15 Q1002 NOSIG

TAF : NZAA 051132Z 0512/0612 34008KT 9999 SCT030 PROB40 0603/0607 6000 SHRA TEMPO 0607/0612 6000 SHRA BKN012 PROB40 TEMPO 0608/0612 33015G25KT 4000 +SHRA BKN012 SCT020TCU BECMG 0611/0612 27010KT


Runway Data for NZAA
Data provided by openaviationdata.com

Runway ID Mag Var Hdg Length Elevation Surface ILS Freq ILS Id ILS Slope
05R 20 50° 11925 ft 23 ft Concrete 110.3 IAA 3
23L 20 230° 11925 ft 23 ft Concrete 109.9 IMG 3

Auckland International Airport, NZ
Use only for reference purposes



Not for navigational purposes.